Time;durP1;ratioP1;P1;durP2;ratioP2;P2;SDS_P1;SDS_P2;PMS_P1;PMS_P2;Temp;Humidity;BMP_temperature;BMP_pressure;BME280_temperature;BME280_humidity;BME280_pressure;Samples;Min_cycle;Max_cycle;Signal;HPM_P1;HPM_P2
2022/04/25 00:01:17;;;;;;;17.52;10.25;;;8.70;99.90;;;;;;5018618;28;25081;-67
2022/04/25 00:03:43;;;;;;;22.88;10.25;;;8.70;99.90;;;;;;5011049;28;25081;-69
2022/04/25 00:06:09;;;;;;;20.88;10.07;;;8.70;99.90;;;;;;5011749;28;25080;-68
2022/04/25 00:08:35;;;;;;;17.63;10.00;;;8.60;99.90;;;;;;5008811;28;25047;-67
2022/04/25 00:11:01;;;;;;;22.25;10.25;;;8.60;99.90;;;;;;5006221;28;25098;-67
2022/04/25 00:13:27;;;;;;;22.85;10.93;;;8.60;99.90;;;;;;5005392;28;25062;-68
2022/04/25 00:15:52;;;;;;;18.30;10.73;;;8.60;99.90;;;;;;5006404;28;25062;-67
2022/04/25 00:18:19;;;;;;;17.85;10.20;;;8.60;99.90;;;;;;5005038;28;25066;-67
2022/04/25 00:20:44;;;;;;;17.92;10.70;;;8.60;99.90;;;;;;5007386;28;25131;-67
2022/04/25 00:23:10;;;;;;;18.77;11.13;;;8.70;99.90;;;;;;5004765;28;25070;-67
2022/04/25 00:25:36;;;;;;;19.65;11.18;;;8.70;99.90;;;;;;5006130;28;25214;-67
2022/04/25 00:28:03;;;;;;;18.42;11.05;;;8.60;99.90;;;;;;5000332;28;25149;-68
2022/04/25 00:30:30;;;;;;;22.45;11.00;;;8.60;99.90;;;;;;5006623;28;25058;-67
2022/04/25 00:32:56;;;;;;;23.33;11.38;;;8.50;99.90;;;;;;5005876;28;25193;-67
2022/04/25 00:35:22;;;;;;;20.33;10.95;;;8.50;99.90;;;;;;5007183;28;25093;-67
2022/04/25 00:37:49;;;;;;;25.00;10.48;;;8.50;99.90;;;;;;5005631;28;25089;-66
2022/04/25 00:40:15;;;;;;;18.25;11.60;;;8.50;99.90;;;;;;5006986;28;25061;-68
2022/04/25 00:42:41;;;;;;;21.92;11.32;;;8.40;99.90;;;;;;5005499;28;25168;-67
2022/04/25 00:45:11;;;;;;;19.52;11.65;;;8.40;99.90;;;;;;5004950;28;25094;-68
2022/04/25 00:47:37;;;;;;;22.05;11.98;;;8.40;99.90;;;;;;5006216;28;25069;-69
2022/04/25 00:50:03;;;;;;;23.40;12.32;;;8.30;99.90;;;;;;5006754;28;25072;-67
2022/04/25 00:52:29;;;;;;;25.52;12.00;;;8.30;99.90;;;;;;5008858;28;25085;-67
2022/04/25 00:54:55;;;;;;;25.08;13.07;;;8.30;99.90;;;;;;5016579;28;25076;-67
2022/04/25 00:57:20;;;;;;;19.75;11.75;;;8.30;99.90;;;;;;5013202;28;25077;-69
2022/04/25 00:59:47;;;;;;;23.92;11.82;;;8.30;99.90;;;;;;5009084;28;25070;-67
2022/04/25 01:02:13;;;;;;;23.88;11.57;;;8.30;99.90;;;;;;5011670;28;25058;-68
2022/04/25 01:04:38;;;;;;;17.95;11.80;;;8.30;99.90;;;;;;5013665;28;25050;-66
2022/04/25 01:07:04;;;;;;;20.52;10.65;;;8.30;99.90;;;;;;5018564;28;25072;-68
2022/04/25 01:09:29;;;;;;;23.60;11.10;;;8.30;99.90;;;;;;5020037;28;25091;-68
2022/04/25 01:11:58;;;;;;;18.60;11.23;;;8.30;99.90;;;;;;5019138;28;25115;-67
2022/04/25 01:14:24;;;;;;;15.98;10.60;;;8.30;99.90;;;;;;5011190;28;25062;-69
2022/04/25 01:16:49;;;;;;;23.65;11.73;;;8.30;99.90;;;;;;5016824;28;25067;-68
2022/04/25 01:19:15;;;;;;;18.15;11.15;;;8.30;99.90;;;;;;5020052;28;25110;-68
2022/04/25 01:21:52;;;;;;;18.17;11.35;;;8.30;99.90;;;;;;5016984;28;25061;-69
2022/04/25 01:27:17;;;;;;;18.40;11.20;;;8.20;99.90;;;;;;5013355;28;25067;-70
2022/04/25 01:29:52;;;;;;;20.15;12.13;;;8.20;99.90;;;;;;5019942;28;25070;-69
2022/04/25 01:32:18;;;;;;;22.40;11.38;;;8.20;99.90;;;;;;5015178;28;25073;-68
2022/04/25 01:34:44;;;;;;;22.20;11.85;;;8.10;99.90;;;;;;5014055;28;25049;-68
2022/04/25 01:37:15;;;;;;;21.70;11.13;;;8.20;99.90;;;;;;5015539;28;25170;-69
2022/04/25 01:39:45;;;;;;;24.30;12.02;;;8.20;99.90;;;;;;5014514;28;25076;-67
2022/04/25 01:42:11;;;;;;;22.75;12.27;;;8.20;99.90;;;;;;5015737;28;25060;-68
2022/04/25 01:44:37;;;;;;;16.95;11.48;;;8.20;99.90;;;;;;5017115;28;25081;-68
2022/04/25 01:47:04;;;;;;;20.25;12.15;;;8.20;99.90;;;;;;5011513;28;25090;-68
2022/04/25 01:49:29;;;;;;;19.63;11.85;;;8.10;99.90;;;;;;5012918;28;25096;-67
2022/04/25 01:51:56;;;;;;;19.45;12.40;;;8.10;99.90;;;;;;5021181;28;25074;-68
2022/04/25 01:54:26;;;;;;;27.80;12.45;;;8.10;99.90;;;;;;5019186;28;25067;-67
2022/04/25 01:56:52;;;;;;;19.05;12.35;;;8.10;99.90;;;;;;5013418;28;25071;-67
2022/04/25 01:59:18;;;;;;;21.35;13.00;;;8.10;99.90;;;;;;5011218;28;25062;-68
2022/04/25 02:01:44;;;;;;;31.70;14.48;;;8.00;99.90;;;;;;5013913;28;25066;-69
2022/04/25 02:04:09;;;;;;;20.10;12.23;;;8.00;99.90;;;;;;5019097;28;25100;-68
2022/04/25 02:06:35;;;;;;;24.40;12.32;;;8.00;99.90;;;;;;5018401;28;25102;-69
2022/04/25 02:09:00;;;;;;;21.17;13.45;;;8.00;99.90;;;;;;5016667;28;25057;-69
2022/04/25 02:11:26;;;;;;;25.17;13.23;;;8.00;99.90;;;;;;5018875;28;25062;-68
2022/04/25 02:13:53;;;;;;;25.05;13.65;;;8.00;99.90;;;;;;5017810;28;25049;-70
2022/04/25 02:16:19;;;;;;;22.98;12.40;;;8.00;99.90;;;;;;5029642;28;25060;-69
2022/04/25 02:18:45;;;;;;;22.73;13.20;;;8.00;99.90;;;;;;5029736;28;25076;-68
2022/04/25 02:21:11;;;;;;;20.95;13.65;;;8.00;99.90;;;;;;5029577;28;25095;-68
2022/04/25 02:23:37;;;;;;;23.20;13.98;;;8.00;99.90;;;;;;5027152;28;25103;-68
2022/04/25 02:26:03;;;;;;;22.70;12.77;;;8.00;99.90;;;;;;5022979;28;25015;-69
2022/04/25 02:28:28;;;;;;;23.27;13.50;;;8.00;99.90;;;;;;5017008;28;25139;-69
2022/04/25 02:30:54;;;;;;;20.42;13.38;;;8.00;99.90;;;;;;5017006;28;25071;-68
2022/04/25 02:33:20;;;;;;;30.13;13.93;;;8.10;99.90;;;;;;5015991;28;25075;-66
2022/04/25 02:35:46;;;;;;;21.88;13.57;;;8.10;99.90;;;;;;5017832;28;25078;-69
2022/04/25 02:38:11;;;;;;;25.83;13.63;;;8.10;99.90;;;;;;5023362;28;25080;-69
2022/04/25 02:40:38;;;;;;;25.98;13.60;;;8.10;99.90;;;;;;5023663;28;25059;-69
2022/04/25 02:43:03;;;;;;;22.52;12.82;;;8.10;99.90;;;;;;5021862;28;25065;-68
2022/04/25 02:45:29;;;;;;;21.98;13.68;;;8.10;99.90;;;;;;5017616;28;25059;-67
2022/04/25 02:47:54;;;;;;;23.42;13.93;;;8.10;99.90;;;;;;5012591;28;25081;-68
2022/04/25 02:50:20;;;;;;;30.70;14.70;;;8.00;99.90;;;;;;5012396;28;25144;-69
2022/04/25 02:52:46;;;;;;;25.65;14.10;;;8.10;99.90;;;;;;5013392;28;25136;-71
2022/04/25 02:55:12;;;;;;;24.60;14.45;;;8.10;99.90;;;;;;5011224;28;25069;-68
2022/04/25 02:57:37;;;;;;;34.55;14.70;;;8.10;99.90;;;;;;5011522;28;25155;-68
2022/04/25 03:00:04;;;;;;;31.17;15.18;;;8.10;99.90;;;;;;5009544;28;25179;-68
2022/04/25 03:02:30;;;;;;;28.08;14.82;;;8.10;99.90;;;;;;5007077;28;25062;-69
2022/04/25 03:04:55;;;;;;;24.48;14.48;;;8.10;99.90;;;;;;5006061;28;25069;-69
2022/04/25 03:07:21;;;;;;;21.90;13.80;;;8.20;99.90;;;;;;5005934;28;25069;-68
2022/04/25 03:09:46;;;;;;;24.02;13.73;;;8.20;99.90;;;;;;5005752;28;25056;-67
2022/04/25 03:12:12;;;;;;;20.52;13.07;;;8.20;99.90;;;;;;5005578;28;25066;-68
2022/04/25 03:14:37;;;;;;;28.42;14.93;;;8.20;99.90;;;;;;5006262;28;25055;-68
2022/04/25 03:17:03;;;;;;;23.23;14.63;;;8.20;99.90;;;;;;5014936;28;25054;-68
2022/04/25 03:19:30;;;;;;;27.17;15.45;;;8.20;99.90;;;;;;5011060;28;25073;-68
2022/04/25 03:21:55;;;;;;;23.65;14.35;;;8.20;99.90;;;;;;5010861;28;25094;-68
2022/04/25 03:24:21;;;;;;;28.00;15.13;;;8.20;99.90;;;;;;5007729;28;25110;-70
2022/04/25 03:26:47;;;;;;;25.83;14.20;;;8.20;99.90;;;;;;5008599;28;25107;-68
2022/04/25 03:29:13;;;;;;;25.67;14.32;;;8.20;99.90;;;;;;5006724;28;25058;-68
2022/04/25 03:31:39;;;;;;;30.10;14.68;;;8.20;99.90;;;;;;5007317;28;25051;-69
2022/04/25 03:34:04;;;;;;;26.92;15.68;;;8.20;99.90;;;;;;5006912;28;25060;-69
2022/04/25 03:36:31;;;;;;;22.00;13.98;;;8.20;99.90;;;;;;5008177;28;25090;-69
2022/04/25 03:38:57;;;;;;;23.20;13.27;;;8.20;99.90;;;;;;5010866;28;25075;-69
2022/04/25 03:41:22;;;;;;;25.10;14.57;;;8.20;99.90;;;;;;5009915;28;25160;-68
2022/04/25 03:43:48;;;;;;;22.63;14.73;;;8.20;99.90;;;;;;5007979;28;25211;-68
2022/04/25 03:46:13;;;;;;;23.10;13.82;;;8.20;99.90;;;;;;5010678;28;25102;-69
2022/04/25 03:48:44;;;;;;;26.75;14.48;;;8.20;99.90;;;;;;5012553;28;25055;-68
2022/04/25 03:51:09;;;;;;;18.88;13.20;;;8.20;99.90;;;;;;5011985;28;25070;-68
2022/04/25 03:53:35;;;;;;;25.42;15.27;;;8.30;99.90;;;;;;5009017;28;25129;-67
2022/04/25 03:58:45;;;;;;;28.52;14.48;;;8.20;99.90;;;;;;5007436;28;25091;-69
2022/04/25 04:01:10;;;;;;;24.73;15.18;;;8.20;99.90;;;;;;5008648;28;25084;-68
2022/04/25 04:03:36;;;;;;;24.83;14.88;;;8.20;99.90;;;;;;5008982;28;25068;-67
2022/04/25 04:06:02;;;;;;;25.70;14.40;;;8.30;99.90;;;;;;5012143;28;25071;-68
2022/04/25 04:08:28;;;;;;;25.27;14.50;;;8.30;99.90;;;;;;5010149;28;25140;-68
2022/04/25 04:10:53;;;;;;;27.73;14.15;;;8.30;99.90;;;;;;5014906;28;25058;-69
2022/04/25 04:13:19;;;;;;;23.63;14.05;;;8.40;99.90;;;;;;5017273;28;25062;-69
2022/04/25 04:15:45;;;;;;;24.17;14.02;;;8.50;99.90;;;;;;5017715;28;25108;-68
2022/04/25 04:18:11;;;;;;;31.25;15.15;;;8.50;99.90;;;;;;5025736;28;25081;-68
2022/04/25 04:20:37;;;;;;;27.92;14.68;;;8.50;99.90;;;;;;5010425;28;24957;-69
2022/04/25 04:23:03;;;;;;;24.70;14.30;;;8.50;99.90;;;;;;5008811;28;25065;-68
2022/04/25 04:25:30;;;;;;;21.27;13.20;;;8.60;99.90;;;;;;5009204;28;25114;-69
2022/04/25 04:27:56;;;;;;;22.75;13.88;;;8.60;99.90;;;;;;5007696;28;25055;-69
2022/04/25 04:30:22;;;;;;;27.95;13.88;;;8.60;99.90;;;;;;5008676;28;25053;-67
2022/04/25 04:32:48;;;;;;;33.05;15.48;;;8.70;99.90;;;;;;5009492;28;25082;-68
2022/04/25 04:36:17;;;;;;;29.27;14.52;;;8.70;99.90;;;;;;5010998;28;25062;-68
2022/04/25 04:38:02;;;;;;;22.95;14.27;;;8.60;99.90;;;;;;5009549;28;25070;-69
2022/04/25 04:40:30;;;;;;;27.60;14.93;;;8.60;99.90;;;;;;5011185;28;25081;-69
2022/04/25 04:42:57;;;;;;;28.02;15.57;;;8.60;99.90;;;;;;5013346;28;25142;-67
2022/04/25 04:45:23;;;;;;;25.45;14.73;;;8.60;99.90;;;;;;5012495;28;25112;-67
2022/04/25 04:47:49;;;;;;;29.35;15.07;;;8.60;99.90;;;;;;5014915;28;25109;-68
2022/04/25 04:50:16;;;;;;;25.95;15.43;;;8.60;99.90;;;;;;5011494;28;25144;-67
2022/04/25 04:52:49;;;;;;;27.55;15.85;;;8.70;99.90;;;;;;5009654;28;25087;-68
2022/04/25 04:55:15;;;;;;;22.40;14.85;;;8.60;99.90;;;;;;5008897;28;25072;-69
2022/04/25 04:57:41;;;;;;;23.17;14.98;;;8.60;99.90;;;;;;5006003;28;25061;-68
2022/04/25 05:00:09;;;;;;;24.80;15.25;;;8.60;99.90;;;;;;5006682;28;25078;-68
2022/04/25 05:02:36;;;;;;;29.23;15.15;;;8.60;99.90;;;;;;5009468;28;25160;-69
2022/04/25 05:05:02;;;;;;;27.70;15.18;;;8.70;99.90;;;;;;5007355;28;25051;-70
2022/04/25 05:07:28;;;;;;;29.48;15.02;;;8.70;99.90;;;;;;5024107;28;25113;-68
2022/04/25 05:09:53;;;;;;;25.80;14.05;;;8.70;99.90;;;;;;5008656;28;25153;-69
2022/04/25 05:12:20;;;;;;;19.00;13.10;;;8.70;99.90;;;;;;5010275;28;25055;-67
2022/04/25 05:14:45;;;;;;;22.92;12.07;;;8.80;99.90;;;;;;5013085;28;25085;-69
2022/04/25 05:17:11;;;;;;;22.70;13.02;;;8.70;99.90;;;;;;5014654;28;25062;-69
2022/04/25 05:19:37;;;;;;;22.15;13.13;;;8.60;99.90;;;;;;5007863;28;25144;-69
2022/04/25 05:22:02;;;;;;;17.67;11.32;;;8.70;99.90;;;;;;5005585;28;25071;-68
2022/04/25 05:24:28;;;;;;;18.73;11.63;;;8.60;99.90;;;;;;5003710;28;25139;-68
2022/04/25 05:26:53;;;;;;;17.58;11.63;;;8.70;99.90;;;;;;5008334;28;25074;-69
2022/04/25 05:29:19;;;;;;;18.58;11.35;;;8.70;99.90;;;;;;5010902;28;25065;-67
2022/04/25 05:31:45;;;;;;;19.50;11.82;;;8.60;99.90;;;;;;5007164;28;25163;-68
2022/04/25 05:34:14;;;;;;;17.33;11.40;;;8.70;99.90;;;;;;5007060;28;25089;-68
2022/04/25 05:36:40;;;;;;;21.52;12.02;;;8.70;99.90;;;;;;5003828;28;25056;-70
2022/04/25 05:39:06;;;;;;;18.20;11.75;;;8.70;99.90;;;;;;5005475;28;25150;-68
2022/04/25 05:41:31;;;;;;;18.13;12.05;;;8.70;99.90;;;;;;5006957;28;25074;-69
2022/04/25 05:43:57;;;;;;;19.90;12.68;;;8.90;99.90;;;;;;5009844;28;25152;-69
2022/04/25 05:46:23;;;;;;;22.80;13.23;;;8.80;99.90;;;;;;4990730;28;25068;-68
2022/04/25 05:54:19;;;;;;;22.13;13.88;;;8.80;99.90;;;;;;5008217;28;25329;-71
2022/04/25 05:56:44;;;;;;;25.27;14.25;;;8.90;99.90;;;;;;5009446;28;25073;-70
2022/04/25 05:59:10;;;;;;;24.67;14.98;;;8.90;99.90;;;;;;5010482;28;25085;-70
2022/04/25 06:01:36;;;;;;;27.15;14.75;;;9.00;99.90;;;;;;5010394;28;25077;-70
2022/04/25 06:04:01;;;;;;;30.25;16.02;;;8.90;99.90;;;;;;5007510;28;25087;-67
2022/04/25 06:06:27;;;;;;;32.95;15.93;;;8.80;99.90;;;;;;5005581;28;25104;-68
2022/04/25 06:08:52;;;;;;;29.40;15.82;;;8.80;99.90;;;;;;5006857;28;25142;-69
2022/04/25 06:11:21;;;;;;;26.90;17.33;;;8.80;99.90;;;;;;5005388;28;25065;-68
2022/04/25 06:13:47;;;;;;;26.98;15.68;;;8.80;99.90;;;;;;5006479;28;25104;-68
2022/04/25 06:16:12;;;;;;;28.95;16.25;;;8.90;99.90;;;;;;5021877;28;25074;-68
2022/04/25 06:18:38;;;;;;;23.20;16.45;;;9.00;99.90;;;;;;5006791;28;25140;-67
2022/04/25 06:21:04;;;;;;;32.83;17.23;;;9.00;99.90;;;;;;5007003;28;25062;-68
2022/04/25 06:23:30;;;;;;;26.27;15.93;;;9.00;99.90;;;;;;5007006;28;25076;-69
2022/04/25 06:25:56;;;;;;;31.77;17.45;;;9.10;99.90;;;;;;5008532;28;25087;-69
2022/04/25 06:28:24;;;;;;;28.08;17.25;;;9.10;99.90;;;;;;5011102;28;25095;-69
2022/04/25 06:30:50;;;;;;;27.42;17.70;;;9.10;99.90;;;;;;5011006;28;25091;-68
2022/04/25 06:33:16;;;;;;;30.85;17.83;;;9.10;99.90;;;;;;5011635;28;25094;-69
2022/04/25 06:35:42;;;;;;;23.55;16.50;;;9.00;99.90;;;;;;5010934;28;25160;-68
2022/04/25 06:38:07;;;;;;;26.73;17.70;;;9.10;99.90;;;;;;5013308;28;25093;-71
2022/04/25 06:40:33;;;;;;;33.50;18.40;;;9.30;99.90;;;;;;5011018;28;25068;-69
2022/04/25 06:42:59;;;;;;;26.05;17.52;;;9.30;99.90;;;;;;5012169;28;25087;-69
2022/04/25 06:45:24;;;;;;;32.78;18.80;;;9.30;99.90;;;;;;5013156;28;25064;-68
2022/04/25 06:47:50;;;;;;;28.98;18.15;;;9.30;99.80;;;;;;5013101;28;25131;-69
2022/04/25 06:50:16;;;;;;;28.58;17.23;;;9.30;99.80;;;;;;5014044;28;25081;-68
2022/04/25 06:52:42;;;;;;;25.33;17.90;;;9.40;99.90;;;;;;5012864;28;25066;-69
2022/04/25 06:55:08;;;;;;;34.58;17.25;;;9.40;99.90;;;;;;5013174;28;25087;-69
2022/04/25 06:57:34;;;;;;;26.48;16.92;;;9.50;99.80;;;;;;5014193;28;25142;-68
2022/04/25 07:00:01;;;;;;;25.88;17.67;;;9.50;99.30;;;;;;5013725;28;25063;-68
2022/04/25 07:02:27;;;;;;;27.48;17.83;;;9.50;98.50;;;;;;5012945;28;25063;-69
2022/04/25 07:04:53;;;;;;;26.98;16.58;;;9.30;98.50;;;;;;5013459;28;25083;-70
2022/04/25 07:07:18;;;;;;;26.80;18.48;;;9.40;99.90;;;;;;5009222;28;25062;-70
2022/04/25 07:09:45;;;;;;;32.28;19.98;;;9.30;98.10;;;;;;5009309;28;25129;-71
2022/04/25 07:12:11;;;;;;;31.50;19.35;;;9.20;99.80;;;;;;5007435;28;25072;-69
2022/04/25 07:14:37;;;;;;;34.13;20.58;;;9.30;99.90;;;;;;5009164;28;25062;-69
2022/04/25 07:17:03;;;;;;;32.47;19.67;;;9.30;99.90;;;;;;5009391;28;25059;-70
2022/04/25 07:19:29;;;;;;;28.83;19.35;;;9.40;99.90;;;;;;5009345;28;25173;-70
2022/04/25 07:30:27;;;;;;;24.45;18.38;;;9.20;99.90;;;;;;4968078;28;25162;-68
2022/04/25 07:32:55;;;;;;;27.27;17.83;;;9.30;99.90;;;;;;4968208;28;25108;-70
2022/04/25 07:35:21;;;;;;;27.05;17.92;;;9.40;99.90;;;;;;4986759;28;25102;-69
2022/04/25 07:37:47;;;;;;;26.63;17.35;;;9.20;99.90;;;;;;5010240;28;25081;-69
2022/04/25 07:40:13;;;;;;;24.85;16.77;;;9.20;99.90;;;;;;5009202;28;25091;-70
2022/04/25 07:42:39;;;;;;;25.02;17.73;;;9.30;99.90;;;;;;5009302;28;25085;-68
2022/04/25 07:45:06;;;;;;;20.27;14.73;;;9.40;99.90;;;;;;5009001;28;25106;-70
2022/04/25 07:47:32;;;;;;;18.92;14.82;;;9.50;99.90;;;;;;5010701;28;25055;-69
2022/04/25 07:49:58;;;;;;;22.52;13.45;;;9.50;99.90;;;;;;5010167;28;25096;-68
2022/04/25 07:52:24;;;;;;;20.25;13.85;;;9.50;99.90;;;;;;5011823;28;25071;-68
2022/04/25 07:54:51;;;;;;;17.95;12.90;;;9.60;99.30;;;;;;5012567;28;25071;-68
2022/04/25 07:57:17;;;;;;;18.52;13.00;;;9.60;97.20;;;;;;5008666;28;25056;-69
2022/04/25 07:59:42;;;;;;;16.83;13.27;;;9.60;95.10;;;;;;5011268;28;25073;-69
2022/04/25 08:02:09;;;;;;;19.08;13.25;;;9.60;96.90;;;;;;5008840;28;25067;-70
2022/04/25 08:04:35;;;;;;;18.50;13.10;;;9.70;97.00;;;;;;5011703;28;25067;-68
2022/04/25 08:07:03;;;;;;;20.92;15.02;;;9.60;95.20;;;;;;5012343;28;25126;-69
2022/04/25 08:09:29;;;;;;;23.65;16.13;;;9.40;94.60;;;;;;5012107;28;25064;-69
2022/04/25 08:20:09;;;;;;;31.75;23.15;;;9.20;99.90;;;;;;5009209;28;25047;-70
2022/04/25 08:22:35;;;;;;;32.90;22.83;;;9.10;99.90;;;;;;5012605;28;25056;-69
2022/04/25 08:25:01;;;;;;;37.28;25.67;;;9.20;99.90;;;;;;5010830;28;25135;-71
2022/04/25 08:27:27;;;;;;;33.08;23.95;;;9.20;99.90;;;;;;5009601;28;25052;-70
2022/04/25 08:29:53;;;;;;;40.40;25.23;;;9.20;99.90;;;;;;5008435;28;25073;-69
2022/04/25 08:32:19;;;;;;;40.17;26.15;;;9.20;99.90;;;;;;5012164;28;25053;-69
2022/04/25 08:34:44;;;;;;;44.47;28.70;;;9.10;99.90;;;;;;5015152;28;25140;-73
2022/04/25 08:37:10;;;;;;;46.40;28.85;;;9.00;99.90;;;;;;5016559;28;25170;-69
2022/04/25 08:39:35;;;;;;;40.22;25.63;;;9.00;99.90;;;;;;5017886;28;25136;-72
2022/04/25 08:42:02;;;;;;;40.22;25.90;;;9.00;99.90;;;;;;5012899;28;25099;-70
2022/04/25 08:44:30;;;;;;;41.92;26.58;;;8.80;99.90;;;;;;5015256;28;25052;-73
2022/04/25 08:46:58;;;;;;;45.25;26.52;;;8.70;99.90;;;;;;5015837;28;25059;-69
2022/04/25 08:49:25;;;;;;;39.70;25.67;;;8.80;99.90;;;;;;5015652;28;25054;-69
2022/04/25 08:51:58;;;;;;;36.97;24.13;;;8.90;99.90;;;;;;5017229;28;25074;-70
2022/04/25 08:54:27;;;;;;;40.13;26.80;;;9.00;99.90;;;;;;5016214;28;25134;-70
2022/04/25 08:56:52;;;;;;;33.92;24.48;;;9.10;99.90;;;;;;5017717;28;25052;-69
2022/04/25 08:59:18;;;;;;;36.40;25.13;;;9.20;99.90;;;;;;5017079;28;25101;-70
2022/04/25 09:01:44;;;;;;;38.25;26.02;;;9.10;99.90;;;;;;5020779;28;25060;-70
2022/04/25 09:04:09;;;;;;;37.95;24.30;;;9.20;99.90;;;;;;5017448;28;25068;-70
2022/04/25 09:06:35;;;;;;;38.10;25.10;;;9.40;99.90;;;;;;5018791;28;25173;-70
2022/04/25 09:09:01;;;;;;;34.80;23.40;;;9.40;99.90;;;;;;5018231;28;25059;-69
2022/04/25 09:14:12;;;;;;;36.33;24.40;;;9.50;99.90;;;;;;5010347;28;25069;-70
2022/04/25 09:16:38;;;;;;;47.50;27.20;;;9.50;99.90;;;;;;5011658;28;25055;-70
2022/04/25 09:19:04;;;;;;;32.50;23.27;;;9.50;99.90;;;;;;5009487;28;25087;-70
2022/04/25 09:21:31;;;;;;;39.67;25.60;;;9.40;99.90;;;;;;5009215;28;25109;-68
2022/04/25 09:24:01;;;;;;;33.75;22.55;;;9.50;99.90;;;;;;5007394;28;25068;-72
2022/04/25 09:26:29;;;;;;;33.53;22.85;;;9.50;99.90;;;;;;5010164;28;25143;-70
2022/04/25 09:28:57;;;;;;;31.33;22.45;;;9.50;99.90;;;;;;5008347;28;25067;-69
2022/04/25 09:31:26;;;;;;;30.27;21.85;;;9.60;99.90;;;;;;5007781;28;25144;-68
2022/04/25 09:33:52;;;;;;;27.30;19.63;;;9.60;99.90;;;;;;5007426;28;25087;-70
2022/04/25 09:36:18;;;;;;;27.27;20.33;;;9.60;99.90;;;;;;5008761;28;25076;-69
2022/04/25 09:38:45;;;;;;;28.52;19.67;;;9.60;99.90;;;;;;5024175;28;25047;-68
2022/04/25 09:41:16;;;;;;;30.33;21.40;;;9.70;99.90;;;;;;5019387;28;25101;-70
2022/04/25 09:43:44;;;;;;;30.85;20.25;;;9.90;99.90;;;;;;5031807;28;25069;-70
2022/04/25 09:46:17;;;;;;;26.92;19.58;;;10.00;99.90;;;;;;5032567;28;25107;-71
2022/04/25 09:49:03;;;;;;;30.95;20.05;;;9.80;99.90;;;;;;5033600;28;25055;-71
2022/04/25 09:51:30;;;;;;;25.45;19.15;;;9.80;99.90;;;;;;5029390;28;25093;-71
2022/04/25 09:53:55;;;;;;;28.45;19.48;;;9.60;99.90;;;;;;5014378;28;25110;-69
2022/04/25 09:56:34;;;;;;;26.08;19.17;;;9.60;99.90;;;;;;5008453;28;25085;-72
2022/04/25 09:59:08;;;;;;;25.20;19.02;;;9.80;99.90;;;;;;5006024;28;25048;-70
2022/04/25 10:01:35;;;;;;;25.85;18.35;;;9.70;99.90;;;;;;5009433;28;25165;-70
2022/04/25 10:04:02;;;;;;;30.15;21.88;;;9.60;99.90;;;;;;5007629;28;25197;-70
2022/04/25 10:06:34;;;;;;;26.23;19.17;;;9.70;99.90;;;;;;5011229;28;25135;-70
2022/04/25 10:09:03;;;;;;;29.00;20.83;;;9.70;99.90;;;;;;5012098;28;25127;-70
2022/04/25 10:11:34;;;;;;;28.60;21.55;;;9.80;99.90;;;;;;5011049;28;25058;-71
2022/04/25 10:14:00;;;;;;;28.77;20.50;;;9.60;99.90;;;;;;5010080;28;25082;-70
2022/04/25 10:16:26;;;;;;;30.55;21.20;;;9.50;99.90;;;;;;5010325;28;25107;-69
2022/04/25 10:18:52;;;;;;;27.83;20.75;;;9.60;99.90;;;;;;5011565;28;25076;-70
2022/04/25 10:21:18;;;;;;;26.42;20.73;;;9.60;99.90;;;;;;5011056;28;25086;-72
2022/04/25 10:23:44;;;;;;;28.02;20.20;;;9.60;99.90;;;;;;5010468;28;25091;-68
2022/04/25 10:26:10;;;;;;;26.98;19.95;;;9.60;99.90;;;;;;5009565;28;25077;-71
2022/04/25 10:28:54;;;;;;;26.98;19.75;;;9.50;99.90;;;;;;5009944;28;25175;-70
2022/04/25 10:31:30;;;;;;;25.70;18.27;;;9.70;99.90;;;;;;5010194;28;25054;-69
2022/04/25 10:33:58;;;;;;;25.00;19.17;;;9.80;99.90;;;;;;5024994;28;25053;-70
2022/04/25 10:36:39;;;;;;;26.35;19.83;;;9.70;99.90;;;;;;5027371;28;25087;-71
2022/04/25 10:39:27;;;;;;;25.73;19.27;;;9.80;99.90;;;;;;5030567;28;25155;-70
2022/04/25 10:44:37;;;;;;;27.17;19.58;;;10.00;99.90;;;;;;5009041;28;25095;-71
2022/04/25 10:47:05;;;;;;;26.13;19.50;;;9.90;99.90;;;;;;5009872;28;25091;-71
2022/04/25 10:49:32;;;;;;;27.52;20.00;;;9.70;99.90;;;;;;5008538;28;25095;-70
2022/04/25 10:51:59;;;;;;;25.45;19.73;;;9.50;99.90;;;;;;5009728;28;25076;-72
2022/04/25 10:54:27;;;;;;;30.48;21.13;;;9.60;99.90;;;;;;5007765;28;25079;-71
2022/04/25 10:57:08;;;;;;;30.52;21.73;;;9.40;99.90;;;;;;5009771;28;25174;-71
2022/04/25 10:59:34;;;;;;;28.17;19.45;;;9.60;99.90;;;;;;5009170;28;25064;-70
2022/04/25 11:02:00;;;;;;;25.00;19.38;;;9.70;99.90;;;;;;5008464;28;25088;-70
2022/04/25 11:04:26;;;;;;;24.33;18.55;;;9.70;99.90;;;;;;5009439;28;25066;-69
2022/04/25 11:07:29;;;;;;;25.50;19.98;;;9.50;99.90;;;;;;5009097;28;25088;-70
2022/04/25 11:09:54;;;;;;;28.25;20.38;;;9.50;99.90;;;;;;5008652;28;25062;-68
2022/04/25 11:12:55;;;;;;;28.67;22.70;;;9.50;99.90;;;;;;5008855;28;25060;-69
2022/04/25 11:15:41;;;;;;;29.90;21.13;;;9.70;99.90;;;;;;5008523;28;25156;-69
2022/04/25 11:18:30;;;;;;;29.65;21.88;;;9.60;99.90;;;;;;5007994;28;25101;-70
2022/04/25 11:21:09;;;;;;;31.88;21.88;;;9.60;99.90;;;;;;5008700;28;25085;-71
2022/04/25 11:23:44;;;;;;;28.17;20.77;;;9.50;99.90;;;;;;5007913;28;25082;-70
2022/04/25 11:26:36;;;;;;;25.65;18.52;;;9.40;99.90;;;;;;5007152;28;25157;-70
2022/04/25 11:29:08;;;;;;;24.47;18.67;;;9.50;99.90;;;;;;5007826;28;25054;-69
2022/04/25 11:31:38;;;;;;;23.38;17.55;;;9.60;99.90;;;;;;5011727;28;25080;-70
2022/04/25 11:34:07;;;;;;;26.98;18.25;;;9.60;99.90;;;;;;5010362;28;25076;-71
2022/04/25 11:36:40;;;;;;;26.83;19.42;;;9.70;99.90;;;;;;5014241;28;25064;-70
2022/04/25 11:41:50;;;;;;;30.33;20.35;;;9.90;99.90;;;;;;5010145;28;25109;-71
2022/04/25 11:44:16;;;;;;;29.45;20.90;;;9.70;99.90;;;;;;5008008;28;25121;-71
2022/04/25 11:46:42;;;;;;;29.35;20.38;;;9.50;99.90;;;;;;5006794;28;25061;-72
2022/04/25 11:49:09;;;;;;;28.02;19.55;;;9.60;99.90;;;;;;5008271;28;25139;-70
2022/04/25 11:51:38;;;;;;;28.60;20.58;;;9.60;99.90;;;;;;5006696;28;25084;-69
2022/04/25 11:54:10;;;;;;;28.88;20.73;;;9.70;99.90;;;;;;5008239;28;25103;-69
2022/04/25 11:56:41;;;;;;;34.57;21.97;;;9.60;99.90;;;;;;5008139;28;25147;-71
2022/04/25 11:59:18;;;;;;;36.47;23.38;;;9.70;99.90;;;;;;5007844;28;25077;-69
2022/04/25 12:01:49;;;;;;;36.53;24.33;;;9.60;99.90;;;;;;5006529;28;25101;-70
2022/04/25 12:04:20;;;;;;;35.50;23.05;;;9.70;99.90;;;;;;5007798;28;25100;-68
2022/04/25 12:07:08;;;;;;;34.17;22.20;;;9.90;99.90;;;;;;5007064;28;25149;-70
2022/04/25 12:15:40;;;;;;;33.88;19.13;;;10.00;99.90;;;;;;5007865;28;25057;-68
2022/04/25 12:18:27;;;;;;;26.92;18.55;;;10.20;99.90;;;;;;5007192;28;25141;-68
2022/04/25 12:21:10;;;;;;;25.70;18.58;;;10.10;99.90;;;;;;5007414;28;25062;-67
2022/04/25 12:23:39;;;;;;;;;;;10.00;99.90;;;;;;5009714;28;25066;-67
2022/04/25 12:26:06;;;;;;;29.23;19.08;;;10.00;99.90;;;;;;5011749;28;24097;-68
2022/04/25 12:28:34;;;;;;;31.02;21.42;;;9.90;99.90;;;;;;5007745;28;25135;-68
2022/04/25 12:31:09;;;;;;;27.50;19.83;;;10.20;99.90;;;;;;5007400;28;25102;-71
2022/04/25 12:33:36;;;;;;;27.80;18.63;;;10.50;99.90;;;;;;5006499;28;25061;-68
2022/04/25 12:36:09;;;;;;;28.48;19.15;;;10.30;96.90;;;;;;5006213;28;25106;-70
2022/04/25 12:38:44;;;;;;;26.98;19.98;;;10.10;98.20;;;;;;5006528;28;25067;-69
2022/04/25 12:41:19;;;;;;;29.63;20.13;;;10.00;99.60;;;;;;5005574;28;25115;-69
2022/04/25 12:43:46;;;;;;;31.13;19.88;;;9.90;99.90;;;;;;5007876;28;25071;-68
2022/04/25 12:46:15;;;;;;;31.90;20.92;;;9.80;99.90;;;;;;5019416;28;25100;-69
2022/04/25 12:48:58;;;;;;;30.20;21.40;;;9.80;99.90;;;;;;5017860;28;25138;-70
2022/04/25 12:51:29;;;;;;;;;;;9.80;99.90;;;;;;5008900;28;25137;-67
2022/04/25 12:53:55;;;;;;;37.33;22.02;;;9.90;99.80;;;;;;5006065;28;25082;-70
2022/04/25 12:56:29;;;;;;;31.52;19.33;;;10.00;99.90;;;;;;5006896;28;25162;-70
2022/04/25 12:58:56;;;;;;;25.55;18.38;;;9.90;95.50;;;;;;5006759;28;25062;-67
2022/04/25 13:01:33;;;;;;;26.33;18.30;;;10.10;97.30;;;;;;5012918;28;25054;-69
2022/04/25 13:04:13;;;;;;;24.90;19.35;;;10.30;95.20;;;;;;5007627;28;25065;-68
2022/04/25 13:06:40;;;;;;;24.73;17.13;;;10.40;91.30;;;;;;5005715;28;25122;-67
2022/04/25 13:09:06;;;;;;;26.98;17.70;;;10.30;86.10;;;;;;5007107;28;25145;-68
2022/04/25 13:11:32;;;;;;;23.98;17.02;;;10.50;85.30;;;;;;5005926;28;25434;-69
2022/04/25 13:13:57;;;;;;;22.45;16.42;;;10.50;79.90;;;;;;5006340;28;25066;-69
2022/04/25 13:16:24;;;;;;;23.42;17.48;;;10.60;74.00;;;;;;5006248;28;25146;-68
2022/04/25 13:18:50;;;;;;;26.67;18.60;;;11.00;75.80;;;;;;5006625;28;25073;-69
2022/04/25 13:21:16;;;;;;;24.67;17.00;;;11.10;68.90;;;;;;5006908;28;25085;-67